Faro, Portugal

1:20 PM WEST on September 02, 2014 (GMT +0100)
Faro | Change Station
CLOSE
Current Station
Airport
Location: Faro,
Elevation: 26 ft
Nearby Weather Stations

Elev 26 ft 37.01 °N, 7.97 °W | Updated 20 minutes ago

Partly Cloudy
Partly Cloudy
75 °F
Feels Like 75 °F
N
10
Wind Variable Wind from SW

Today
High -- | Low -- °F
--% Chance of Precip.
Yesterday
High -- | Low -- °F
Precip. -- in
7:03 AM 7:59 PM
Waxing Crescent, 51% visible
Pressure 29.92 in
Visibility 6.2 miles
Clouds Few 1800 ft
Dew Point 68 °F
Humidity 78%
Rainfall 0.00 in
Snow Depth Not available.
UV 10 out of 12
Pollen Not available.
Air Quality Not available.
Flu Activity Not available.
METAR LPFR 021200Z 23009KT 9999 FEW018 24/20 Q1013

More Conditions Fewer Conditions

Pressure 29.92 in
Visibility 6.2 miles
Clouds Few 1800 ft
Dew Point 68 °F
Humidity 78%
Rainfall 0.00 in
Snow Depth Not available.
UV 10 out of 12
Pollen Not available.
Air Quality Not available.
Flu Activity Not available.
METAR LPFR 021200Z 23009KT 9999 FEW018 24/20 Q1013

More Conditions Fewer Conditions

10-Day Weather Forecast

Almanac

Astronomy

Sep. 02, 2014 Rise Set
Actual Time 7:03 AM WEST 7:59 PM WEST
Civil Twilight 6:36 AM WEST 8:25 PM WEST
Nautical Twilight 6:05 AM WEST 8:57 PM WEST
Astronomical Twilight 5:32 AM WEST 9:29 PM WEST
Moon 2:24 PM WEST 12:00 AM WEST
Length of Visible Light 13h 48m
Length of Day
12h 55m
Tomorrow will be 2m 16s shorter.
Waxing Crescent, 51% of the Moon is Illuminated
Today
Waxing Crescent
Sep 8
Full
Sep 15
Last Quarter
Sep 24
New
Oct 1
First Quarter

Yesterday's Extremes

Country Highs Country Lows

Community

WunderPhotos

Upload Photos

1,749,639 photos uploaded!

WunderBlogs® & News

By Dr. Jeff Masters
Director of Meteorology, Weather Underground
By Kari Strenfel
Meteorologist, Weather Underground
By Christopher C. Burt
Weather Historian, Weather Underground
September 2, 2014
September 2, 2014
September 2, 2014

Nearby

Snow Depth

Not available.

Earthquake Activity

City Distance Mag. Time & Date
No recent earthquake activity has been reported nearby.
Minimum magnitude displayed is 2.5.

Coastal Water Temperatures

Place Temperature
No Stations Reporting

Nearby Weather Stations